sensor_id;sensor_type;location;lat;lon;timestamp;pressure;altitude;pressure_sealevel;temperature;humidity
9460;BME280;4768;42.664;23.240;2023-02-22T00:00:36;169700.28;;;10.41;73.16
9460;BME280;4768;42.664;23.240;2023-02-22T00:03:10;169653.69;;;10.24;73.96
9460;BME280;4768;42.664;23.240;2023-02-22T00:05:37;169708.28;;;10.44;73.12
9460;BME280;4768;42.664;23.240;2023-02-22T00:08:10;169652.31;;;10.23;73.51
9460;BME280;4768;42.664;23.240;2023-02-22T00:10:37;169690.97;;;10.38;72.14
9460;BME280;4768;42.664;23.240;2023-02-22T00:13:07;169649.69;;;10.22;72.56
9460;BME280;4768;42.664;23.240;2023-02-22T00:15:35;169613.69;;;10.09;73.89
9460;BME280;4768;42.664;23.240;2023-02-22T00:18:03;169537.72;;;9.81;74.83
9460;BME280;4768;42.664;23.240;2023-02-22T00:20:31;169551.06;;;9.86;75.33
9460;BME280;4768;42.664;23.240;2023-02-22T00:22:58;169493.75;;;9.64;76.54
9460;BME280;4768;42.664;23.240;2023-02-22T00:25:25;169463.16;;;9.53;76.88
9460;BME280;4768;42.664;23.240;2023-02-22T00:27:52;169411.19;;;9.34;78.15
9460;BME280;4768;42.664;23.240;2023-02-22T00:30:23;169343.28;;;9.09;80.23
9460;BME280;4768;42.664;23.240;2023-02-22T00:32:53;169310.03;;;8.96;80.90
9460;BME280;4768;42.664;23.240;2023-02-22T00:35:22;169332.69;;;9.05;81.00
9460;BME280;4768;42.664;23.240;2023-02-22T00:37:50;169353.97;;;9.13;80.49
9460;BME280;4768;42.664;23.240;2023-02-22T00:40:18;169391.22;;;9.26;80.49
9460;BME280;4768;42.664;23.240;2023-02-22T00:42:46;169368.63;;;9.18;81.24
9460;BME280;4768;42.664;23.240;2023-02-22T00:45:15;169330.00;;;9.04;82.59
9460;BME280;4768;42.664;23.240;2023-02-22T00:47:44;169307.34;;;8.95;83.82
9460;BME280;4768;42.664;23.240;2023-02-22T00:50:11;169314.03;;;8.98;84.46
9460;BME280;4768;42.664;23.240;2023-02-22T00:52:38;169255.44;;;8.76;86.32
9460;BME280;4768;42.664;23.240;2023-02-22T00:55:07;169255.44;;;8.76;87.05
9460;BME280;4768;42.664;23.240;2023-02-22T00:57:34;169282.09;;;8.86;86.78
9460;BME280;4768;42.664;23.240;2023-02-22T01:00:01;169275.41;;;8.83;87.30
9460;BME280;4768;42.664;23.240;2023-02-22T01:02:36;169291.38;;;8.89;87.46
9460;BME280;4768;42.664;23.240;2023-02-22T01:05:05;169311.34;;;8.97;87.44
9460;BME280;4768;42.664;23.240;2023-02-22T01:07:32;169302.06;;;8.93;87.06
9460;BME280;4768;42.664;23.240;2023-02-22T01:09:59;169304.72;;;8.94;86.87
9460;BME280;4768;42.664;23.240;2023-02-22T01:12:26;169300.75;;;8.93;87.00
9460;BME280;4768;42.664;23.240;2023-02-22T01:14:52;169314.03;;;8.98;86.93
9460;BME280;4768;42.664;23.240;2023-02-22T01:17:21;169304.72;;;8.94;87.29
9460;BME280;4768;42.664;23.240;2023-02-22T01:19:48;169304.72;;;8.94;87.78
9460;BME280;4768;42.664;23.240;2023-02-22T01:22:17;169286.09;;;8.87;88.52
9460;BME280;4768;42.664;23.240;2023-02-22T01:24:44;169303.38;;;8.94;89.31
9460;BME280;4768;42.664;23.240;2023-02-22T01:27:10;169280.72;;;8.85;89.65
9460;BME280;4768;42.664;23.240;2023-02-22T01:29:37;169295.38;;;8.91;89.37
9460;BME280;4768;42.664;23.240;2023-02-22T01:32:05;169251.47;;;8.74;91.17
9460;BME280;4768;42.664;23.240;2023-02-22T01:34:32;169243.47;;;8.71;91.27
9460;BME280;4768;42.664;23.240;2023-02-22T01:37:00;169194.25;;;8.53;93.94
9460;BME280;4768;42.664;23.240;2023-02-22T01:39:28;169216.84;;;8.62;95.30
9460;BME280;4768;42.664;23.240;2023-02-22T01:41:55;169190.25;;;8.52;96.86
9460;BME280;4768;42.664;23.240;2023-02-22T01:44:27;169222.19;;;8.64;95.81
9460;BME280;4768;42.664;23.240;2023-02-22T01:46:55;169242.16;;;8.71;95.10
9460;BME280;4768;42.664;23.240;2023-02-22T01:49:22;169203.56;;;8.57;95.41
9460;BME280;4768;42.664;23.240;2023-02-22T01:51:51;169196.88;;;8.54;95.37
9460;BME280;4768;42.664;23.240;2023-02-22T01:54:23;169183.59;;;8.49;96.32
9460;BME280;4768;42.664;23.240;2023-02-22T01:57:05;169164.94;;;8.42;96.72
9460;BME280;4768;42.664;23.240;2023-02-22T01:59:36;169148.97;;;8.36;97.63
9460;BME280;4768;42.664;23.240;2023-02-22T02:02:03;169150.34;;;8.37;97.49
9460;BME280;4768;42.664;23.240;2023-02-22T02:04:31;169137.00;;;8.32;97.71
9460;BME280;4768;42.664;23.240;2023-02-22T02:07:00;169143.69;;;8.34;98.51
9460;BME280;4768;42.664;23.240;2023-02-22T02:09:31;169107.75;;;8.21;99.60
9460;BME280;4768;42.664;23.240;2023-02-22T02:12:02;169067.78;;;8.06;100.00
9460;BME280;4768;42.664;23.240;2023-02-22T02:14:31;169073.09;;;8.08;100.00
9460;BME280;4768;42.664;23.240;2023-02-22T02:16:58;169113.06;;;8.23;100.00
9460;BME280;4768;42.664;23.240;2023-02-22T02:19:34;169141.00;;;8.33;100.00
9460;BME280;4768;42.664;23.240;2023-02-22T02:22:15;169115.75;;;8.24;100.00
9460;BME280;4768;42.664;23.240;2023-02-22T02:28:05;169114.44;;;8.23;100.00
9460;BME280;4768;42.664;23.240;2023-02-22T02:30:48;169115.75;;;8.24;100.00
9460;BME280;4768;42.664;23.240;2023-02-22T02:33:24;169101.09;;;8.18;100.00
9460;BME280;4768;42.664;23.240;2023-02-22T02:35:59;169102.41;;;8.19;100.00
9460;BME280;4768;42.664;23.240;2023-02-22T02:38:32;169071.78;;;8.08;100.00
9460;BME280;4768;42.664;23.240;2023-02-22T02:41:07;169037.19;;;7.95;100.00
9460;BME280;4768;42.664;23.240;2023-02-22T02:43:39;169026.53;;;7.91;100.00
9460;BME280;4768;42.664;23.240;2023-02-22T02:46:11;169037.19;;;7.95;100.00
9460;BME280;4768;42.664;23.240;2023-02-22T02:48:44;169026.53;;;7.91;100.00
9460;BME280;4768;42.664;23.240;2023-02-22T02:51:13;169023.91;;;7.90;100.00
9460;BME280;4768;42.664;23.240;2023-02-22T02:53:44;169001.28;;;7.81;100.00
9460;BME280;4768;42.664;23.240;2023-02-22T02:56:12;168993.28;;;7.78;100.00
9460;BME280;4768;42.664;23.240;2023-02-22T02:58:45;168920.13;;;7.51;100.00
9460;BME280;4768;42.664;23.240;2023-02-22T03:01:19;168857.66;;;7.28;100.00
9460;BME280;4768;42.664;23.240;2023-02-22T03:04:03;168816.44;;;7.13;100.00
9460;BME280;4768;42.664;23.240;2023-02-22T03:06:44;168789.88;;;7.03;100.00
9460;BME280;4768;42.664;23.240;2023-02-22T03:09:26;168844.34;;;7.23;100.00
9460;BME280;4768;42.664;23.240;2023-02-22T03:12:13;168851.00;;;7.25;100.00
9460;BME280;4768;42.664;23.240;2023-02-22T03:14:51;168897.56;;;7.43;100.00
9460;BME280;4768;42.664;23.240;2023-02-22T03:17:23;168933.47;;;7.56;100.00
9460;BME280;4768;42.664;23.240;2023-02-22T03:19:58;168905.53;;;7.46;100.00
9460;BME280;4768;42.664;23.240;2023-02-22T03:22:32;168924.13;;;7.53;100.00
9460;BME280;4768;42.664;23.240;2023-02-22T03:25:07;168894.88;;;7.42;100.00
9460;BME280;4768;42.664;23.240;2023-02-22T03:27:38;168922.81;;;7.52;100.00
9460;BME280;4768;42.664;23.240;2023-02-22T03:30:11;168949.41;;;7.62;100.00
9460;BME280;4768;42.664;23.240;2023-02-22T03:32:45;168953.41;;;7.64;100.00
9460;BME280;4768;42.664;23.240;2023-02-22T03:35:18;168997.28;;;7.80;100.00
9460;BME280;4768;42.664;23.240;2023-02-22T03:37:49;169013.25;;;7.86;100.00
9460;BME280;4768;42.664;23.240;2023-02-22T03:40:22;169010.56;;;7.85;100.00
9460;BME280;4768;42.664;23.240;2023-02-22T03:42:53;168994.59;;;7.79;100.00
9460;BME280;4768;42.664;23.240;2023-02-22T03:45:23;168990.63;;;7.77;100.00
9460;BME280;4768;42.664;23.240;2023-02-22T03:47:59;168968.03;;;7.69;100.00
9460;BME280;4768;42.664;23.240;2023-02-22T03:50:33;168950.72;;;7.63;100.00
9460;BME280;4768;42.664;23.240;2023-02-22T03:53:01;168957.38;;;7.65;100.00
9460;BME280;4768;42.664;23.240;2023-02-22T03:55:28;168944.13;;;7.60;100.00
9460;BME280;4768;42.664;23.240;2023-02-22T03:57:57;168908.16;;;7.47;100.00
9460;BME280;4768;42.664;23.240;2023-02-22T04:00:28;168941.44;;;7.59;100.00
9460;BME280;4768;42.664;23.240;2023-02-22T04:02:56;168990.63;;;7.77;100.00
9460;BME280;4768;42.664;23.240;2023-02-22T04:05:23;168993.28;;;7.78;100.00
9460;BME280;4768;42.664;23.240;2023-02-22T04:07:52;168986.63;;;7.76;100.00
9460;BME280;4768;42.664;23.240;2023-02-22T04:10:19;168997.28;;;7.80;100.00
9460;BME280;4768;42.664;23.240;2023-02-22T04:12:46;168995.97;;;7.79;100.00
9460;BME280;4768;42.664;23.240;2023-02-22T04:15:15;169009.25;;;7.84;100.00
9460;BME280;4768;42.664;23.240;2023-02-22T04:17:42;169038.50;;;7.95;100.00
9460;BME280;4768;42.664;23.240;2023-02-22T04:20:09;169089.13;;;8.14;100.00
9460;BME280;4768;42.664;23.240;2023-02-22T04:22:38;169083.81;;;8.12;100.00
9460;BME280;4768;42.664;23.240;2023-02-22T04:25:07;169059.81;;;8.03;100.00
9460;BME280;4768;42.664;23.240;2023-02-22T04:27:34;169045.16;;;7.98;100.00
9460;BME280;4768;42.664;23.240;2023-02-22T04:30:00;169035.88;;;7.94;100.00
9460;BME280;4768;42.664;23.240;2023-02-22T04:32:27;169031.88;;;7.93;100.00
9460;BME280;4768;42.664;23.240;2023-02-22T04:34:54;169067.78;;;8.06;100.00
9460;BME280;4768;42.664;23.240;2023-02-22T04:37:21;169066.44;;;8.06;100.00
9460;BME280;4768;42.664;23.240;2023-02-22T04:39:47;169071.78;;;8.08;100.00
9460;BME280;4768;42.664;23.240;2023-02-22T04:42:16;169021.22;;;7.89;100.00
9460;BME280;4768;42.664;23.240;2023-02-22T04:44:43;169018.56;;;7.88;100.00
9460;BME280;4768;42.664;23.240;2023-02-22T04:47:10;168982.63;;;7.74;100.00
9460;BME280;4768;42.664;23.240;2023-02-22T04:49:36;168974.66;;;7.71;100.00
9460;BME280;4768;42.664;23.240;2023-02-22T04:52:03;168918.81;;;7.51;100.00
9460;BME280;4768;42.664;23.240;2023-02-22T04:54:30;168904.16;;;7.45;100.00
9460;BME280;4768;42.664;23.240;2023-02-22T04:56:56;168910.84;;;7.48;100.00
9460;BME280;4768;42.664;23.240;2023-02-22T04:59:25;168925.47;;;7.53;100.00
9460;BME280;4768;42.664;23.240;2023-02-22T05:01:51;168925.47;;;7.53;100.00
9460;BME280;4768;42.664;23.240;2023-02-22T05:04:18;168914.81;;;7.49;100.00
9460;BME280;4768;42.664;23.240;2023-02-22T05:06:46;168956.09;;;7.65;100.00
9460;BME280;4768;42.664;23.240;2023-02-22T05:09:13;168870.94;;;7.33;100.00
9460;BME280;4768;42.664;23.240;2023-02-22T05:11:40;168877.63;;;7.35;100.00
9460;BME280;4768;42.664;23.240;2023-02-22T05:14:07;168874.94;;;7.34;100.00
9460;BME280;4768;42.664;23.240;2023-02-22T05:16:35;168872.25;;;7.33;100.00
9460;BME280;4768;42.664;23.240;2023-02-22T05:19:02;168710.06;;;6.73;100.00
9460;BME280;4768;42.664;23.240;2023-02-22T05:21:29;168547.97;;;6.13;100.00
9460;BME280;4768;42.664;23.240;2023-02-22T05:23:56;168516.09;;;6.01;100.00
9460;BME280;4768;42.664;23.240;2023-02-22T05:26:22;168462.97;;;5.81;100.00
9460;BME280;4768;42.664;23.240;2023-02-22T06:32:25;168960.06;;;7.66;100.00
9460;BME280;4768;42.664;23.240;2023-02-22T06:34:52;169006.59;;;7.83;100.00
9460;BME280;4768;42.664;23.240;2023-02-22T06:37:19;169133.03;;;8.30;100.00
9460;BME280;4768;42.664;23.240;2023-02-22T06:39:46;169220.84;;;8.63;100.00
9460;BME280;4768;42.664;23.240;2023-02-22T06:42:13;169353.97;;;9.13;100.00
9460;BME280;4768;42.664;23.240;2023-02-22T06:44:40;169484.47;;;9.61;100.00
9460;BME280;4768;42.664;23.240;2023-02-22T06:47:06;169636.34;;;10.17;100.00
9460;BME280;4768;42.664;23.240;2023-02-22T06:49:34;169777.59;;;10.70;100.00
9460;BME280;4768;42.664;23.240;2023-02-22T06:52:03;169921.56;;;11.23;100.00
9460;BME280;4768;42.664;23.240;2023-02-22T06:54:30;170065.59;;;11.77;100.00
9460;BME280;4768;42.664;23.240;2023-02-22T06:56:57;170195.00;;;12.25;100.00
9460;BME280;4768;42.664;23.240;2023-02-22T06:59:23;170300.41;;;12.64;100.00
9460;BME280;4768;42.664;23.240;2023-02-22T07:01:50;170172.31;;;12.16;100.00
9460;BME280;4768;42.664;23.240;2023-02-22T07:04:17;169483.13;;;9.61;100.00
9460;BME280;4768;42.664;23.240;2023-02-22T07:06:45;169302.06;;;8.93;100.00
9460;BME280;4768;42.664;23.240;2023-02-22T07:09:12;169198.25;;;8.55;100.00
9460;BME280;4768;42.664;23.240;2023-02-22T07:11:40;169251.47;;;8.74;100.00
9460;BME280;4768;42.664;23.240;2023-02-22T07:14:06;169344.66;;;9.09;100.00
9460;BME280;4768;42.664;23.240;2023-02-22T07:16:33;169303.38;;;8.94;100.00
9460;BME280;4768;42.664;23.240;2023-02-22T07:19:00;169572.41;;;9.94;100.00
9460;BME280;4768;42.664;23.240;2023-02-22T07:21:27;169409.88;;;9.33;100.00
9460;BME280;4768;42.664;23.240;2023-02-22T07:23:57;169437.84;;;9.44;100.00
9460;BME280;4768;42.664;23.240;2023-02-22T07:26:24;169480.47;;;9.60;100.00
9460;BME280;4768;42.664;23.240;2023-02-22T07:28:52;169476.47;;;9.58;100.00
9460;BME280;4768;42.664;23.240;2023-02-22T07:31:19;169499.13;;;9.66;100.00
9460;BME280;4768;42.664;23.240;2023-02-22T07:33:46;169532.41;;;9.79;100.00
9460;BME280;4768;42.664;23.240;2023-02-22T07:36:14;169636.34;;;10.17;100.00
9460;BME280;4768;42.664;23.240;2023-02-22T07:38:42;169669.69;;;10.30;100.00
9460;BME280;4768;42.664;23.240;2023-02-22T07:41:10;169697.66;;;10.40;100.00
9460;BME280;4768;42.664;23.240;2023-02-22T07:43:37;169793.59;;;10.76;100.00
9460;BME280;4768;42.664;23.240;2023-02-22T07:46:04;169953.56;;;11.35;100.00
9460;BME280;4768;42.664;23.240;2023-02-22T07:48:31;169849.56;;;10.97;100.00
9460;BME280;4768;42.664;23.240;2023-02-22T07:50:58;169797.59;;;10.77;100.00
9460;BME280;4768;42.664;23.240;2023-02-22T07:53:26;170068.28;;;11.78;100.00
9460;BME280;4768;42.664;23.240;2023-02-22T07:55:55;170255.06;;;12.47;100.00
9460;BME280;4768;42.664;23.240;2023-02-22T07:58:25;170281.75;;;12.57;100.00
9460;BME280;4768;42.664;23.240;2023-02-22T08:00:52;170227.03;;;12.37;100.00
9460;BME280;4768;42.664;23.240;2023-02-22T08:03:21;170092.28;;;11.87;100.00
9460;BME280;4768;42.664;23.240;2023-02-22T08:05:50;170204.34;;;12.28;100.00
9460;BME280;4768;42.664;23.240;2023-02-22T08:08:17;170303.09;;;12.65;100.00
9460;BME280;4768;42.664;23.240;2023-02-22T08:10:44;170289.75;;;12.60;100.00
9460;BME280;4768;42.664;23.240;2023-02-22T08:13:11;170176.31;;;12.18;100.00
9460;BME280;4768;42.664;23.240;2023-02-22T08:15:40;170160.31;;;12.12;100.00
9460;BME280;4768;42.664;23.240;2023-02-22T08:18:09;170048.28;;;11.70;100.00
9460;BME280;4768;42.664;23.240;2023-02-22T08:20:38;170069.59;;;11.78;100.00
9460;BME280;4768;42.664;23.240;2023-02-22T08:23:06;170068.28;;;11.78;100.00
9460;BME280;4768;42.664;23.240;2023-02-22T08:25:33;170061.59;;;11.75;100.00
9460;BME280;4768;42.664;23.240;2023-02-22T08:28:02;170311.09;;;12.68;100.00
9460;BME280;4768;42.664;23.240;2023-02-22T08:30:31;170292.38;;;12.61;100.00
9460;BME280;4768;42.664;23.240;2023-02-22T08:33:01;170448.63;;;13.19;100.00
9460;BME280;4768;42.664;23.240;2023-02-22T08:35:28;170556.75;;;13.59;100.00
9460;BME280;4768;42.664;23.240;2023-02-22T08:37:57;170598.16;;;13.74;98.45
9460;BME280;4768;42.664;23.240;2023-02-22T08:40:26;170440.63;;;13.16;99.54
9460;BME280;4768;42.664;23.240;2023-02-22T08:42:53;170510.03;;;13.42;99.78
9460;BME280;4768;42.664;23.240;2023-02-22T08:45:20;170548.75;;;13.56;99.88
9460;BME280;4768;42.664;23.240;2023-02-22T08:47:48;170599.50;;;13.75;98.83
9460;BME280;4768;42.664;23.240;2023-02-22T08:50:17;170586.13;;;13.70;98.17
9460;BME280;4768;42.664;23.240;2023-02-22T08:52:44;170486.00;;;13.33;99.42
9460;BME280;4768;42.664;23.240;2023-02-22T08:55:11;170463.28;;;13.24;99.54
9460;BME280;4768;42.664;23.240;2023-02-22T08:57:38;170456.66;;;13.22;100.00
9460;BME280;4768;42.664;23.240;2023-02-22T09:00:05;170436.63;;;13.14;100.00
9460;BME280;4768;42.664;23.240;2023-02-22T09:02:32;170463.28;;;13.24;100.00
9460;BME280;4768;42.664;23.240;2023-02-22T09:04:59;170512.72;;;13.43;100.00
9460;BME280;4768;42.664;23.240;2023-02-22T09:07:27;170530.03;;;13.49;100.00
9460;BME280;4768;42.664;23.240;2023-02-22T09:09:54;170602.16;;;13.76;100.00
9460;BME280;4768;42.664;23.240;2023-02-22T09:12:21;170583.50;;;13.69;98.09
9460;BME280;4768;42.664;23.240;2023-02-22T09:14:47;170592.81;;;13.72;98.10
9460;BME280;4768;42.664;23.240;2023-02-22T09:17:14;170520.72;;;13.46;98.10
9460;BME280;4768;42.664;23.240;2023-02-22T09:19:41;170477.97;;;13.30;99.18
9460;BME280;4768;42.664;23.240;2023-02-22T09:22:10;170524.72;;;13.47;98.38
9460;BME280;4768;42.664;23.240;2023-02-22T09:24:38;170554.09;;;13.58;97.83
9460;BME280;4768;42.664;23.240;2023-02-22T09:27:07;170624.88;;;13.84;98.61
9460;BME280;4768;42.664;23.240;2023-02-22T09:29:36;170630.19;;;13.86;95.81
9460;BME280;4768;42.664;23.240;2023-02-22T09:32:04;170607.53;;;13.78;98.37
9460;BME280;4768;42.664;23.240;2023-02-22T09:34:30;170527.41;;;13.48;97.91
9460;BME280;4768;42.664;23.240;2023-02-22T09:36:59;170616.84;;;13.81;98.42
9460;BME280;4768;42.664;23.240;2023-02-22T09:39:29;170583.50;;;13.69;97.11
9460;BME280;4768;42.664;23.240;2023-02-22T09:42:06;170582.13;;;13.68;99.67
9460;BME280;4768;42.664;23.240;2023-02-22T09:44:39;170574.09;;;13.65;98.42
9460;BME280;4768;42.664;23.240;2023-02-22T09:47:14;170648.91;;;13.93;97.02
9460;BME280;4768;42.664;23.240;2023-02-22T09:49:51;170580.81;;;13.68;97.05
9460;BME280;4768;42.664;23.240;2023-02-22T09:52:24;170676.94;;;14.03;97.38
9460;BME280;4768;42.664;23.240;2023-02-22T09:54:56;170834.66;;;14.62;95.75
9460;BME280;4768;42.664;23.240;2023-02-22T09:57:34;170811.94;;;14.53;89.07
9460;BME280;4768;42.664;23.240;2023-02-22T10:00:10;170884.06;;;14.80;88.53
9460;BME280;4768;42.664;23.240;2023-02-22T10:02:43;170980.28;;;15.16;86.84
9460;BME280;4768;42.664;23.240;2023-02-22T10:05:15;171017.78;;;15.30;87.15
9460;BME280;4768;42.664;23.240;2023-02-22T10:07:46;170888.09;;;14.82;85.51
9460;BME280;4768;42.664;23.240;2023-02-22T10:10:20;170976.28;;;15.14;84.65
9460;BME280;4768;42.664;23.240;2023-02-22T10:12:54;170905.50;;;14.88;86.18
9460;BME280;4768;42.664;23.240;2023-02-22T10:15:38;170876.06;;;14.77;87.76
9460;BME280;4768;42.664;23.240;2023-02-22T10:18:36;170865.41;;;14.73;84.68
9460;BME280;4768;42.664;23.240;2023-02-22T10:21:17;170930.84;;;14.98;86.20
9460;BME280;4768;42.664;23.240;2023-02-22T10:23:55;170913.50;;;14.91;81.32
9460;BME280;4768;42.664;23.240;2023-02-22T10:26:29;170806.59;;;14.51;82.15
9460;BME280;4768;42.664;23.240;2023-02-22T10:29:02;170773.16;;;14.39;83.15
9460;BME280;4768;42.664;23.240;2023-02-22T10:31:33;170948.22;;;15.04;82.33
9460;BME280;4768;42.664;23.240;2023-02-22T10:34:02;171005.78;;;15.25;79.18
9460;BME280;4768;42.664;23.240;2023-02-22T10:36:30;171051.19;;;15.42;76.48
9460;BME280;4768;42.664;23.240;2023-02-22T10:39:06;170987.03;;;15.18;76.22
9460;BME280;4768;42.664;23.240;2023-02-22T10:41:41;171080.63;;;15.53;78.75
9460;BME280;4768;42.664;23.240;2023-02-22T10:44:11;171198.28;;;15.96;77.30
9460;BME280;4768;42.664;23.240;2023-02-22T10:46:38;171045.88;;;15.40;75.93
9460;BME280;4768;42.664;23.240;2023-02-22T10:49:06;171134.09;;;15.73;76.92
9460;BME280;4768;42.664;23.240;2023-02-22T10:51:34;170997.75;;;15.22;75.43
9460;BME280;4768;42.664;23.240;2023-02-22T10:54:17;170978.97;;;15.15;77.04
9460;BME280;4768;42.664;23.240;2023-02-22T10:56:48;170981.66;;;15.16;75.50
9460;BME280;4768;42.664;23.240;2023-02-22T10:59:27;171007.09;;;15.26;76.00
9460;BME280;4768;42.664;23.240;2023-02-22T11:01:54;171045.88;;;15.40;78.89
9460;BME280;4768;42.664;23.240;2023-02-22T11:04:21;171103.34;;;15.61;76.96
9460;BME280;4768;42.664;23.240;2023-02-22T11:07:06;171060.59;;;15.46;74.95
9460;BME280;4768;42.664;23.240;2023-02-22T11:09:45;170962.94;;;15.09;76.51
9460;BME280;4768;42.664;23.240;2023-02-22T11:12:17;171170.19;;;15.86;79.63
9460;BME280;4768;42.664;23.240;2023-02-22T11:14:46;171306.66;;;16.37;74.36
9460;BME280;4768;42.664;23.240;2023-02-22T11:17:17;171341.44;;;16.49;70.66
9460;BME280;4768;42.664;23.240;2023-02-22T11:19:46;171238.41;;;16.11;69.97
9460;BME280;4768;42.664;23.240;2023-02-22T11:22:20;171130.09;;;15.71;70.18
9460;BME280;4768;42.664;23.240;2023-02-22T11:24:49;171341.44;;;16.49;69.69
9460;BME280;4768;42.664;23.240;2023-02-22T11:27:39;171204.97;;;15.99;67.10
9460;BME280;4768;42.664;23.240;2023-02-22T11:30:19;171187.63;;;15.93;67.13
9460;BME280;4768;42.664;23.240;2023-02-22T11:32:49;171324.06;;;16.43;68.01
9460;BME280;4768;42.664;23.240;2023-02-22T11:35:30;171349.47;;;16.52;64.89
9460;BME280;4768;42.664;23.240;2023-02-22T11:38:09;171295.97;;;16.33;65.59
9460;BME280;4768;42.664;23.240;2023-02-22T11:40:37;171222.34;;;16.05;64.55
9460;BME280;4768;42.664;23.240;2023-02-22T11:43:08;171278.56;;;16.26;65.26
9460;BME280;4768;42.664;23.240;2023-02-22T11:45:38;171304.00;;;16.36;65.71
9460;BME280;4768;42.664;23.240;2023-02-22T11:48:06;171374.91;;;16.62;66.25
9460;BME280;4768;42.664;23.240;2023-02-22T11:50:42;171431.09;;;16.83;65.29
9460;BME280;4768;42.664;23.240;2023-02-22T11:53:24;171314.69;;;16.40;63.34
9460;BME280;4768;42.664;23.240;2023-02-22T11:56:08;171249.09;;;16.15;63.59
9460;BME280;4768;42.664;23.240;2023-02-22T11:58:43;171203.66;;;15.98;63.99
9460;BME280;4768;42.664;23.240;2023-02-22T12:01:21;171104.72;;;15.62;63.68
9460;BME280;4768;42.664;23.240;2023-02-22T12:06:45;171275.94;;;16.25;60.93
9460;BME280;4768;42.664;23.240;2023-02-22T12:09:18;171221.03;;;16.05;59.79
9460;BME280;4768;42.664;23.240;2023-02-22T12:11:55;171302.63;;;16.35;61.78
9460;BME280;4768;42.664;23.240;2023-02-22T12:14:29;171309.34;;;16.38;60.03
9460;BME280;4768;42.664;23.240;2023-02-22T12:17:29;171269.22;;;16.23;60.20
9460;BME280;4768;42.664;23.240;2023-02-22T12:20:03;171342.81;;;16.50;61.97
9460;BME280;4768;42.664;23.240;2023-02-22T12:22:35;171404.34;;;16.73;59.56
9460;BME280;4768;42.664;23.240;2023-02-22T12:25:07;171368.22;;;16.59;61.29
9460;BME280;4768;42.664;23.240;2023-02-22T12:27:44;171519.41;;;17.15;59.04
9460;BME280;4768;42.664;23.240;2023-02-22T12:30:18;171395.00;;;16.69;58.54
9460;BME280;4768;42.664;23.240;2023-02-22T12:32:51;171207.66;;;16.00;61.57
9460;BME280;4768;42.664;23.240;2023-02-22T12:35:21;171310.66;;;16.38;61.17
9460;BME280;4768;42.664;23.240;2023-02-22T12:37:55;171283.94;;;16.28;60.99
9460;BME280;4768;42.664;23.240;2023-02-22T12:40:30;171328.09;;;16.45;62.22
9460;BME280;4768;42.664;23.240;2023-02-22T12:43:02;171265.16;;;16.21;60.59
9460;BME280;4768;42.664;23.240;2023-02-22T12:45:35;171266.47;;;16.22;61.85
9460;BME280;4768;42.664;23.240;2023-02-22T12:48:19;171352.16;;;16.53;62.40
9460;BME280;4768;42.664;23.240;2023-02-22T12:50:51;171213.00;;;16.02;62.32
9460;BME280;4768;42.664;23.240;2023-02-22T12:53:25;171316.06;;;16.40;63.63
9460;BME280;4768;42.664;23.240;2023-02-22T12:55:57;171186.25;;;15.92;64.13
9460;BME280;4768;42.664;23.240;2023-02-22T12:58:29;171317.38;;;16.41;63.84
9460;BME280;4768;42.664;23.240;2023-02-22T13:01:01;171182.22;;;15.91;63.26
9460;BME280;4768;42.664;23.240;2023-02-22T13:03:36;171211.69;;;16.01;63.39
9460;BME280;4768;42.664;23.240;2023-02-22T13:06:27;171214.31;;;16.02;63.15
9460;BME280;4768;42.664;23.240;2023-02-22T13:09:11;171221.03;;;16.05;61.32
9460;BME280;4768;42.664;23.240;2023-02-22T13:11:47;171200.97;;;15.97;60.01
9460;BME280;4768;42.664;23.240;2023-02-22T13:14:34;171269.22;;;16.23;62.47
9460;BME280;4768;42.664;23.240;2023-02-22T13:17:09;171215.69;;;16.03;61.53
9460;BME280;4768;42.664;23.240;2023-02-22T13:19:51;171259.81;;;16.19;63.58
9460;BME280;4768;42.664;23.240;2023-02-22T13:22:25;171300.00;;;16.34;63.94
9460;BME280;4768;42.664;23.240;2023-02-22T13:25:01;171258.44;;;16.19;62.47
9460;BME280;4768;42.664;23.240;2023-02-22T13:27:36;171337.44;;;16.48;63.27
9460;BME280;4768;42.664;23.240;2023-02-22T13:30:05;171423.09;;;16.80;63.50
9460;BME280;4768;42.664;23.240;2023-02-22T13:32:49;171318.69;;;16.41;61.57
9460;BME280;4768;42.664;23.240;2023-02-22T13:35:33;171246.41;;;16.14;60.49
9460;BME280;4768;42.664;23.240;2023-02-22T13:38:20;171230.38;;;16.08;61.59
9460;BME280;4768;42.664;23.240;2023-02-22T13:41:07;171279.94;;;16.27;60.94
9460;BME280;4768;42.664;23.240;2023-02-22T13:44:03;171206.28;;;15.99;61.97
9460;BME280;4768;42.664;23.240;2023-02-22T13:46:58;171238.41;;;16.11;61.77
9460;BME280;4768;42.664;23.240;2023-02-22T13:49:43;171198.28;;;15.96;62.05
9460;BME280;4768;42.664;23.240;2023-02-22T13:52:16;171213.00;;;16.02;62.39
9460;BME280;4768;42.664;23.240;2023-02-22T13:54:48;171203.66;;;15.98;62.20
9460;BME280;4768;42.664;23.240;2023-02-22T13:57:21;171176.91;;;15.89;62.28
9460;BME280;4768;42.664;23.240;2023-02-22T14:00:22;171202.28;;;15.98;62.76
9460;BME280;4768;42.664;23.240;2023-02-22T14:03:00;171301.31;;;16.35;63.25
9460;BME280;4768;42.664;23.240;2023-02-22T14:05:51;171234.38;;;16.10;63.30
9460;BME280;4768;42.664;23.240;2023-02-22T14:08:39;171148.81;;;15.78;63.20
9460;BME280;4768;42.664;23.240;2023-02-22T14:11:39;171140.81;;;15.75;64.59
9460;BME280;4768;42.664;23.240;2023-02-22T14:14:12;171174.22;;;15.88;64.42
9460;BME280;4768;42.664;23.240;2023-02-22T14:16:42;171160.84;;;15.83;65.05
9460;BME280;4768;42.664;23.240;2023-02-22T14:19:16;171174.22;;;15.88;66.19
9460;BME280;4768;42.664;23.240;2023-02-22T14:21:55;171178.22;;;15.89;66.54
9460;BME280;4768;42.664;23.240;2023-02-22T14:24:27;171171.56;;;15.87;66.84
9460;BME280;4768;42.664;23.240;2023-02-22T14:26:58;171191.63;;;15.94;66.41
9460;BME280;4768;42.664;23.240;2023-02-22T14:29:26;171214.31;;;16.02;68.54
9460;BME280;4768;42.664;23.240;2023-02-22T14:32:05;171127.41;;;15.70;68.45